createdAt,value
2018-02-13T00:01:06.783Z,99.90
2018-02-13T00:03:34.357Z,99.90
2018-02-13T00:06:01.886Z,99.90
2018-02-13T00:08:29.422Z,99.90
2018-02-13T00:10:56.999Z,99.90
2018-02-13T00:13:24.523Z,99.90
2018-02-13T00:15:52.823Z,99.90
2018-02-13T00:18:20.516Z,99.90
2018-02-13T00:20:48.042Z,99.90
2018-02-13T00:23:15.620Z,99.90
2018-02-13T00:25:43.958Z,99.90
2018-02-13T00:28:11.486Z,99.90
2018-02-13T00:30:39.778Z,99.90
2018-02-13T00:33:08.138Z,99.90
2018-02-13T00:35:35.660Z,99.90
2018-02-13T00:38:03.186Z,99.90
2018-02-13T00:40:30.914Z,99.90
2018-02-13T00:42:58.443Z,99.90
2018-02-13T00:45:26.741Z,99.90
2018-02-13T00:47:55.152Z,99.90
2018-02-13T00:50:22.676Z,99.90
2018-02-13T00:52:50.207Z,99.90
2018-02-13T00:55:17.788Z,99.90
2018-02-13T00:57:45.374Z,99.90
2018-02-13T01:00:14.218Z,99.90
2018-02-13T01:02:42.574Z,99.90
2018-02-13T01:05:10.111Z,99.90
2018-02-13T01:07:37.649Z,99.90
2018-02-13T01:10:06.021Z,99.90
2018-02-13T01:12:33.563Z,99.90
2018-02-13T01:15:01.099Z,99.90
2018-02-13T01:17:28.678Z,99.90
2018-02-13T01:19:56.250Z,99.90
2018-02-13T01:22:23.830Z,99.90
2018-02-13T01:24:51.406Z,99.90
2018-02-13T01:27:19.059Z,99.90
2018-02-13T01:29:46.609Z,99.90
2018-02-13T01:32:14.981Z,99.90
2018-02-13T01:34:42.514Z,99.90
2018-02-13T01:37:10.047Z,99.90
2018-02-13T01:39:38.569Z,99.90
2018-02-13T01:42:06.102Z,99.90
2018-02-13T01:44:34.403Z,99.90
2018-02-13T01:47:01.999Z,99.90
2018-02-13T01:49:29.539Z,99.90
2018-02-13T01:51:57.855Z,99.90
2018-02-13T01:54:25.443Z,99.90
2018-02-13T01:56:52.975Z,99.90
2018-02-13T01:59:21.276Z,99.90
2018-02-13T02:01:48.863Z,99.90
2018-02-13T02:04:16.397Z,99.90
2018-02-13T02:06:44.694Z,99.90
2018-02-13T02:09:12.266Z,99.90
2018-02-13T02:11:40.564Z,99.90
2018-02-13T02:14:08.098Z,99.90
2018-02-13T02:16:35.682Z,99.90
2018-02-13T02:19:03.989Z,99.90
2018-02-13T02:21:31.518Z,99.90
2018-02-13T02:23:59.098Z,99.90
2018-02-13T02:26:26.640Z,99.90
2018-02-13T02:28:54.190Z,99.90
2018-02-13T02:31:21.788Z,99.90
2018-02-13T02:33:49.329Z,99.90
2018-02-13T02:36:16.863Z,99.90
2018-02-13T02:38:45.206Z,99.90
2018-02-13T02:41:12.744Z,99.90
2018-02-13T02:43:40.283Z,99.90
2018-02-13T02:46:08.649Z,99.90
2018-02-13T02:48:36.184Z,99.90
2018-02-13T02:51:03.963Z,99.90
2018-02-13T02:53:31.539Z,99.90
2018-02-13T02:55:59.106Z,99.90
2018-02-13T02:58:26.630Z,99.90
2018-02-13T03:00:54.215Z,99.90
2018-02-13T03:03:22.522Z,99.90
2018-02-13T03:05:50.055Z,99.90
2018-02-13T03:08:17.644Z,99.90
2018-02-13T03:10:45.938Z,99.90
2018-02-13T03:13:14.233Z,99.90
2018-02-13T03:15:42.571Z,99.90
2018-02-13T03:18:10.103Z,99.90
2018-02-13T03:20:37.637Z,99.90
2018-02-13T03:23:05.217Z,99.90
2018-02-13T03:25:33.527Z,99.90
2018-02-13T03:28:01.838Z,99.90
2018-02-13T03:30:29.411Z,99.90
2018-02-13T03:32:56.946Z,99.90
2018-02-13T03:35:25.243Z,99.90
2018-02-13T03:37:53.592Z,99.90
2018-02-13T03:40:21.128Z,99.90
2018-02-13T03:42:48.657Z,99.90
2018-02-13T03:45:16.227Z,99.90
2018-02-13T03:47:44.530Z,99.90
2018-02-13T03:50:12.830Z,99.90
2018-02-13T03:52:40.418Z,99.90
2018-02-13T03:55:07.987Z,99.90
2018-02-13T03:57:35.555Z,99.90
2018-02-13T04:00:03.126Z,99.90
2018-02-13T04:02:30.653Z,99.90
2018-02-13T04:04:58.188Z,99.90
2018-02-13T04:07:25.858Z,99.90
2018-02-13T04:09:53.389Z,99.90
2018-02-13T04:12:21.686Z,99.90
2018-02-13T04:14:50.027Z,99.90
2018-02-13T04:17:17.555Z,99.90
2018-02-13T04:19:45.317Z,99.90
2018-02-13T04:22:12.929Z,99.90
2018-02-13T04:24:40.469Z,99.90
2018-02-13T04:27:08.010Z,99.90
2018-02-13T04:29:35.598Z,99.90
2018-02-13T04:32:03.910Z,99.90
2018-02-13T04:34:31.437Z,99.90
2018-02-13T04:36:59.679Z,99.90
2018-02-13T04:39:27.444Z,99.90
2018-02-13T04:41:55.012Z,99.90
2018-02-13T04:44:22.611Z,99.90
2018-02-13T04:46:50.142Z,99.90
2018-02-13T04:49:18.656Z,99.90
2018-02-13T04:51:46.276Z,99.90
2018-02-13T04:54:13.811Z,99.90
2018-02-13T04:56:41.361Z,99.90
2018-02-13T04:59:09.143Z,99.90
2018-02-13T05:01:36.756Z,99.90
2018-02-13T05:04:04.287Z,99.90
2018-02-13T05:06:32.005Z,99.90
2018-02-13T05:09:00.306Z,99.90
2018-02-13T05:11:27.840Z,99.90
2018-02-13T05:13:55.420Z,99.90
2018-02-13T05:16:22.984Z,99.90
2018-02-13T05:18:50.546Z,99.90
2018-02-13T05:21:18.122Z,99.90
2018-02-13T05:23:45.658Z,99.90
2018-02-13T05:26:13.959Z,99.90
2018-02-13T05:28:41.636Z,99.90
2018-02-13T05:31:09.163Z,99.90
2018-02-13T05:33:36.702Z,99.90
2018-02-13T05:36:04.278Z,99.90
2018-02-13T05:38:31.811Z,99.90
2018-02-13T05:40:59.341Z,99.90
2018-02-13T05:43:26.926Z,99.90
2018-02-13T05:45:55.287Z,99.90
2018-02-13T05:48:22.824Z,99.90
2018-02-13T05:50:50.405Z,99.90
2018-02-13T05:53:19.422Z,99.90
2018-02-13T05:55:47.378Z,99.90
2018-02-13T05:58:14.964Z,99.90
2018-02-13T06:00:42.500Z,99.90
2018-02-13T06:03:10.799Z,99.90
2018-02-13T06:05:38.483Z,99.90
2018-02-13T06:08:06.054Z,99.90
2018-02-13T06:10:33.590Z,99.90
2018-02-13T06:13:01.310Z,99.90
2018-02-13T06:15:28.842Z,99.90
2018-02-13T06:17:57.146Z,99.90
2018-02-13T06:20:24.747Z,99.90
2018-02-13T06:22:52.278Z,99.90
2018-02-13T06:25:20.579Z,99.90
2018-02-13T06:27:48.175Z,99.90
2018-02-13T06:30:15.706Z,99.90
2018-02-13T06:32:44.002Z,99.90
2018-02-13T06:35:12.427Z,99.90
2018-02-13T06:37:39.974Z,99.90
2018-02-13T06:40:07.509Z,99.90
2018-02-13T06:42:35.122Z,99.90
2018-02-13T06:45:02.655Z,99.90
2018-02-13T06:47:30.962Z,99.90
2018-02-13T06:49:59.579Z,99.90
2018-02-13T06:52:27.110Z,99.90
2018-02-13T06:54:54.742Z,99.90
2018-02-13T06:57:22.329Z,99.90
2018-02-13T06:59:49.855Z,99.90
2018-02-13T07:02:18.273Z,99.90
2018-02-13T07:04:45.846Z,99.90
2018-02-13T07:07:13.389Z,99.90
2018-02-13T07:09:41.678Z,99.90
2018-02-13T07:12:10.270Z,99.90
2018-02-13T07:14:37.947Z,99.90
2018-02-13T07:17:06.237Z,99.90
2018-02-13T07:19:33.827Z,99.90
2018-02-13T07:22:01.374Z,99.90
2018-02-13T07:24:29.685Z,99.90
2018-02-13T07:26:57.356Z,99.90
2018-02-13T07:29:24.886Z,99.90
2018-02-13T07:31:52.416Z,99.90
2018-02-13T07:34:19.982Z,99.90
2018-02-13T07:36:47.522Z,99.90
2018-02-13T07:39:15.830Z,99.90
2018-02-13T07:41:43.426Z,99.90
2018-02-13T07:44:10.972Z,99.90
2018-02-13T07:46:38.496Z,99.90
2018-02-13T07:49:06.110Z,99.90
2018-02-13T07:51:33.634Z,99.90
2018-02-13T07:54:01.162Z,99.90
2018-02-13T07:56:28.942Z,99.90
2018-02-13T07:58:56.514Z,99.90
2018-02-13T08:01:24.035Z,99.90
2018-02-13T08:03:52.591Z,99.90
2018-02-13T08:06:20.127Z,99.90
2018-02-13T08:08:47.654Z,99.90
2018-02-13T08:11:15.236Z,99.90
2018-02-13T08:13:42.767Z,99.90
2018-02-13T08:16:10.320Z,99.90
2018-02-13T08:18:37.895Z,99.90
2018-02-13T08:21:05.417Z,99.90
2018-02-13T08:23:33.028Z,99.90
2018-02-13T08:26:00.704Z,99.90
2018-02-13T08:28:28.234Z,99.90
2018-02-13T08:30:56.530Z,99.90
2018-02-13T08:33:24.133Z,99.90
2018-02-13T08:35:51.675Z,99.90
2018-02-13T08:38:19.961Z,99.90
2018-02-13T08:40:48.305Z,99.90
2018-02-13T08:43:15.834Z,99.90
2018-02-13T08:45:44.138Z,99.90
2018-02-13T08:48:11.815Z,99.90
2018-02-13T08:50:39.375Z,99.90
2018-02-13T08:53:07.666Z,99.90
2018-02-13T08:55:35.243Z,99.90
2018-02-13T08:58:02.833Z,99.90
2018-02-13T09:00:30.367Z,99.90
2018-02-13T09:02:58.706Z,99.90
2018-02-13T09:05:26.267Z,99.90
2018-02-13T09:07:53.818Z,99.90
2018-02-13T09:10:21.414Z,99.90
2018-02-13T09:12:48.947Z,99.90
2018-02-13T09:15:17.242Z,99.90
2018-02-13T09:17:44.819Z,99.90
2018-02-13T09:20:12.346Z,99.90
2018-02-13T09:22:39.877Z,99.90
2018-02-13T09:25:07.548Z,99.90
2018-02-13T09:27:35.074Z,99.90
2018-02-13T09:30:02.611Z,99.90
2018-02-13T09:32:30.249Z,99.90
2018-02-13T09:34:58.127Z,99.90
2018-02-13T09:37:25.665Z,99.90
2018-02-13T09:39:53.269Z,99.10
2018-02-13T09:42:20.800Z,98.70
2018-02-13T09:44:48.340Z,98.90
2018-02-13T09:47:16.010Z,98.40
2018-02-13T09:49:43.571Z,98.40
2018-02-13T09:52:11.111Z,97.90
2018-02-13T09:54:39.456Z,97.70
2018-02-13T09:57:06.978Z,97.70
2018-02-13T09:59:34.506Z,97.60
2018-02-13T10:02:02.085Z,97.70
2018-02-13T10:04:29.714Z,97.50
2018-02-13T10:06:57.271Z,97.30
2018-02-13T10:09:25.087Z,97.30
2018-02-13T10:11:52.646Z,97.40
2018-02-13T10:14:20.167Z,96.10
2018-02-13T10:16:47.882Z,96.00
2018-02-13T10:19:15.410Z,96.50
2018-02-13T10:21:43.706Z,96.30
2018-02-13T10:24:12.058Z,95.60
2018-02-13T10:26:39.595Z,95.50
2018-02-13T10:29:07.155Z,95.80
2018-02-13T10:31:34.726Z,96.20
2018-02-13T10:34:02.255Z,96.30
2018-02-13T10:36:29.788Z,96.00
2018-02-13T10:38:57.362Z,95.80
2018-02-13T10:41:24.895Z,95.80
2018-02-13T10:43:53.202Z,95.30
2018-02-13T10:46:20.784Z,95.30
2018-02-13T10:48:48.318Z,95.00
2018-02-13T10:51:16.620Z,95.20
2018-02-13T10:53:44.306Z,95.20
2018-02-13T10:56:11.862Z,95.30
2018-02-13T10:58:39.397Z,94.70
2018-02-13T11:04:07.956Z,94.80
2018-02-13T11:06:36.293Z,92.00
2018-02-13T11:09:03.836Z,91.90
2018-02-13T11:11:31.364Z,91.80
2018-02-13T11:13:58.935Z,91.50
2018-02-13T11:16:27.230Z,92.70
2018-02-13T11:18:55.526Z,92.40
2018-02-13T11:21:24.054Z,92.70
2018-02-13T11:23:51.583Z,92.70
2018-02-13T11:26:19.114Z,93.30
2018-02-13T11:28:46.686Z,92.80
2018-02-13T11:31:14.218Z,93.40
2018-02-13T11:33:41.758Z,93.00
2018-02-13T11:36:09.338Z,93.10
2018-02-13T11:38:37.627Z,93.10
2018-02-13T11:41:05.922Z,93.20
2018-02-13T11:43:34.265Z,93.50
2018-02-13T11:46:01.794Z,93.50
2018-02-13T11:48:29.330Z,93.70
2018-02-13T11:50:56.907Z,93.30
2018-02-13T11:53:24.438Z,93.50
2018-02-13T11:55:51.966Z,94.10
2018-02-13T11:58:20.311Z,93.90
2018-02-13T12:00:47.866Z,93.90
2018-02-13T12:03:15.420Z,94.20
2018-02-13T12:05:42.997Z,94.10
2018-02-13T12:08:10.536Z,93.90
2018-02-13T12:10:38.094Z,93.90
2018-02-13T12:13:05.668Z,94.50
2018-02-13T12:15:33.196Z,94.10
2018-02-13T12:18:00.767Z,94.30
2018-02-13T12:20:28.423Z,94.00
2018-02-13T12:22:55.954Z,94.10
2018-02-13T12:25:36.242Z,94.50
2018-02-13T12:28:04.535Z,94.70
2018-02-13T12:30:32.827Z,94.60
2018-02-13T12:33:00.513Z,94.60
2018-02-13T12:35:28.053Z,94.50
2018-02-13T12:37:56.346Z,94.30
2018-02-13T12:40:24.674Z,94.70
2018-02-13T12:42:52.206Z,94.70
2018-02-13T12:45:20.515Z,94.00
2018-02-13T12:47:48.108Z,94.00
2018-02-13T12:50:15.639Z,94.00
2018-02-13T12:52:43.994Z,94.30
2018-02-13T12:55:11.546Z,94.30
2018-02-13T12:57:39.090Z,93.70
2018-02-13T13:00:06.622Z,94.10
2018-02-13T13:02:34.196Z,94.20
2018-02-13T13:05:01.730Z,94.00
2018-02-13T13:07:29.254Z,93.40
2018-02-13T13:09:57.595Z,93.30
2018-02-13T13:12:25.121Z,93.30
2018-02-13T13:14:53.425Z,93.60
2018-02-13T13:17:20.992Z,93.60
2018-02-13T13:19:48.526Z,94.10
2018-02-13T13:22:16.050Z,93.40
2018-02-13T13:24:43.834Z,93.50
2018-02-13T13:27:11.363Z,93.20
2018-02-13T13:29:39.659Z,93.20
2018-02-13T13:32:07.994Z,92.70
2018-02-13T13:34:35.519Z,92.70
2018-02-13T13:37:03.046Z,92.90
2018-02-13T13:39:30.619Z,92.70
2018-02-13T13:41:58.146Z,92.40
2018-02-13T13:44:25.686Z,92.30
2018-02-13T13:46:54.034Z,91.60
2018-02-13T13:49:21.564Z,91.60
2018-02-13T13:51:49.089Z,91.30
2018-02-13T13:54:16.842Z,91.80
2018-02-13T13:56:44.370Z,92.10
2018-02-13T13:59:12.667Z,91.40
2018-02-13T14:01:41.007Z,91.60
2018-02-13T14:04:08.542Z,91.60
2018-02-13T14:06:36.067Z,91.10
2018-02-13T14:09:03.806Z,91.00
2018-02-13T14:11:31.371Z,90.40
2018-02-13T14:13:58.907Z,91.40
2018-02-13T14:16:27.255Z,90.00
2018-02-13T14:18:55.289Z,89.80
2018-02-13T14:21:22.869Z,89.30
2018-02-13T14:23:50.438Z,89.00
2018-02-13T14:26:17.986Z,87.40
2018-02-13T14:28:46.278Z,87.80
2018-02-13T14:31:14.626Z,86.80
2018-02-13T14:33:42.158Z,86.70
2018-02-13T14:36:09.690Z,86.10
2018-02-13T14:38:38.811Z,87.00
2018-02-13T14:41:07.102Z,87.30
2018-02-13T14:43:35.394Z,89.20
2018-02-13T14:46:04.422Z,86.10
2018-02-13T14:48:31.946Z,86.00
2018-02-13T14:51:00.986Z,85.80
2018-02-13T14:53:28.578Z,85.90
2018-02-13T14:55:56.123Z,87.70
2018-02-13T14:58:23.646Z,89.80
2018-02-13T15:00:51.248Z,86.80
2018-02-13T15:03:18.866Z,86.60
2018-02-13T15:05:46.398Z,87.20
2018-02-13T15:08:14.735Z,88.20
2018-02-13T15:10:42.255Z,88.20
2018-02-13T15:13:10.580Z,88.70
2018-02-13T15:15:38.146Z,88.70
2018-02-13T15:18:10.142Z,86.50
2018-02-13T15:20:37.794Z,86.40
2018-02-13T15:23:05.325Z,86.50
2018-02-13T15:25:32.849Z,87.10
2018-02-13T15:28:00.418Z,87.40
2018-02-13T15:30:27.947Z,88.40
2018-02-13T15:32:56.262Z,90.10
2018-02-13T15:35:23.841Z,90.10
2018-02-13T15:37:51.374Z,89.50
2018-02-13T15:40:19.711Z,89.30
2018-02-13T15:42:47.315Z,89.20
2018-02-13T15:45:14.851Z,88.60
2018-02-13T15:47:42.381Z,89.70
2018-02-13T15:50:10.717Z,90.70
2018-02-13T15:52:38.239Z,90.70
2018-02-13T15:55:06.782Z,90.50
2018-02-13T15:57:34.374Z,90.50
2018-02-13T16:00:02.066Z,90.30
2018-02-13T16:02:30.387Z,89.20
2018-02-13T16:04:58.196Z,89.20
2018-02-13T16:07:25.758Z,89.20
2018-02-13T16:09:53.281Z,90.40
2018-02-13T16:12:20.887Z,90.00
2018-02-13T16:14:48.443Z,90.20
2018-02-13T16:17:16.142Z,90.20
2018-02-13T16:19:43.897Z,90.90
2018-02-13T16:22:11.474Z,91.60
2018-02-13T16:24:39.002Z,91.20
2018-02-13T16:27:06.615Z,91.50
2018-02-13T16:29:34.918Z,92.70
2018-02-13T16:32:02.448Z,92.70
2018-02-13T16:34:30.799Z,93.30
2018-02-13T16:36:58.414Z,93.20
2018-02-13T16:39:26.712Z,93.00
2018-02-13T16:41:55.059Z,93.10
2018-02-13T16:44:23.352Z,93.40
2018-02-13T16:46:50.871Z,93.40
2018-02-13T16:49:18.540Z,93.50
2018-02-13T16:51:46.124Z,93.70
2018-02-13T16:54:13.669Z,94.00
2018-02-13T16:56:42.003Z,93.90
2018-02-13T16:59:09.538Z,93.90
2018-02-13T17:01:37.864Z,94.30
2018-02-13T17:04:05.433Z,94.20
2018-02-13T17:06:32.990Z,94.40
2018-02-13T17:09:00.517Z,94.20
2018-02-13T17:11:28.198Z,94.10
2018-02-13T17:13:55.720Z,94.50
2018-02-13T17:16:23.258Z,94.40
2018-02-13T17:18:51.779Z,95.00
2018-02-13T17:21:19.355Z,94.90
2018-02-13T17:23:46.895Z,95.20
2018-02-13T17:26:14.971Z,95.10
2018-02-13T17:28:42.726Z,95.40
2018-02-13T17:31:10.347Z,95.30
2018-02-13T17:33:37.911Z,95.40
2018-02-13T17:36:06.199Z,96.20
2018-02-13T17:38:33.741Z,96.20
2018-02-13T17:41:02.085Z,96.80
2018-02-13T17:43:29.623Z,96.70
2018-02-13T17:45:57.154Z,97.10
2018-02-13T17:48:24.723Z,97.60
2018-02-13T17:50:52.246Z,97.30
2018-02-13T17:53:19.816Z,97.50
2018-02-13T17:55:47.392Z,97.80
2018-02-13T17:58:14.956Z,97.70
2018-02-13T18:00:42.497Z,99.30
2018-02-13T18:03:10.846Z,99.10
2018-02-13T18:05:38.985Z,99.10
2018-02-13T18:08:06.550Z,99.00
2018-02-13T18:10:34.982Z,99.20
2018-02-13T18:13:02.511Z,99.20
2018-02-13T18:15:30.834Z,99.90
2018-02-13T18:17:58.432Z,99.90
2018-02-13T18:20:25.968Z,99.00
2018-02-13T18:22:53.497Z,98.50
2018-02-13T18:25:21.079Z,98.20
2018-02-13T18:27:49.502Z,97.60
2018-02-13T18:30:17.086Z,97.50
2018-02-13T18:32:44.655Z,97.70
2018-02-13T18:35:12.215Z,97.80
2018-02-13T18:37:40.198Z,98.10
2018-02-13T18:40:07.878Z,98.10
2018-02-13T18:42:35.411Z,98.20
2018-02-13T18:45:03.724Z,98.40
2018-02-13T18:47:31.317Z,98.30
2018-02-13T18:49:58.852Z,98.30
2018-02-13T18:54:55.503Z,98.20
2018-02-13T18:57:23.817Z,97.90
2018-02-13T19:00:11.244Z,97.80
2018-02-13T19:02:39.573Z,98.30
2018-02-13T19:05:07.970Z,98.40
2018-02-13T19:07:36.044Z,98.40
2018-02-13T19:10:03.609Z,98.40
2018-02-13T19:12:31.910Z,98.80
2018-02-13T19:15:00.250Z,99.00
2018-02-13T19:17:27.877Z,98.90
2018-02-13T19:19:55.445Z,98.90
2018-02-13T19:22:23.017Z,99.00
2018-02-13T19:24:50.606Z,98.90
2018-02-13T19:27:18.227Z,98.80
2018-02-13T19:29:46.644Z,98.90
2018-02-13T19:32:14.181Z,98.90
2018-02-13T19:34:41.912Z,99.10
2018-02-13T19:37:09.486Z,99.30
2018-02-13T19:39:37.315Z,99.50
2018-02-13T19:42:05.967Z,99.80
2018-02-13T19:44:33.597Z,99.80
2018-02-13T19:47:02.016Z,99.90
2018-02-13T19:49:29.665Z,99.90
2018-02-13T19:51:58.070Z,99.90
2018-02-13T19:54:26.706Z,99.90
2018-02-13T19:56:54.369Z,99.90
2018-02-13T19:59:22.438Z,99.90
2018-02-13T20:01:50.024Z,99.90
2018-02-13T20:04:17.692Z,99.90
2018-02-13T20:06:45.289Z,99.90
2018-02-13T20:09:12.928Z,99.90
2018-02-13T20:11:40.462Z,99.90
2018-02-13T20:14:08.135Z,99.90
2018-02-13T20:16:36.438Z,99.90
2018-02-13T20:19:04.827Z,99.90
2018-02-13T20:21:34.889Z,99.90
2018-02-13T20:24:02.484Z,99.90
2018-02-13T20:26:30.042Z,99.90
2018-02-13T20:28:57.743Z,99.90
2018-02-13T20:31:25.704Z,99.90
2018-02-13T20:33:53.283Z,99.90
2018-02-13T20:36:20.957Z,99.90
2018-02-13T20:38:48.572Z,99.90
2018-02-13T20:41:16.286Z,99.90
2018-02-13T20:43:43.869Z,99.90
2018-02-13T20:46:11.466Z,99.90
2018-02-13T20:48:39.082Z,99.90
2018-02-13T20:51:07.144Z,99.90
2018-02-13T20:53:34.875Z,99.90
2018-02-13T20:56:02.493Z,99.90
2018-02-13T20:58:30.850Z,99.90
2018-02-13T21:00:58.383Z,99.90
2018-02-13T22:25:24.729Z,99.90
2018-02-13T22:27:52.263Z,99.90
2018-02-13T22:30:19.810Z,99.90
2018-02-13T22:32:48.151Z,99.90
2018-02-13T22:35:15.684Z,99.90
2018-02-13T22:37:43.982Z,99.90
2018-02-13T22:40:11.653Z,99.90
2018-02-13T22:42:39.186Z,99.90
2018-02-13T22:45:06.722Z,99.90
2018-02-13T22:47:34.299Z,99.90
2018-02-13T22:50:01.843Z,99.90
2018-02-13T22:52:29.416Z,99.90
2018-02-13T22:54:57.029Z,99.90
2018-02-13T22:57:24.562Z,99.90
2018-02-13T22:59:52.115Z,99.90
2018-02-13T23:02:19.694Z,99.90
2018-02-13T23:04:47.223Z,99.90
2018-02-13T23:07:14.763Z,99.90
2018-02-13T23:09:42.440Z,99.90
2018-02-13T23:12:09.988Z,99.90
2018-02-13T23:14:37.559Z,99.90
2018-02-13T23:17:05.167Z,99.90
2018-02-13T23:19:32.802Z,99.90
2018-02-13T23:22:00.338Z,99.90
2018-02-13T23:24:28.682Z,99.90
2018-02-13T23:26:56.210Z,99.90
2018-02-13T23:29:24.498Z,99.90
2018-02-13T23:31:52.841Z,99.90
2018-02-13T23:34:20.370Z,99.90
2018-02-13T23:36:47.968Z,99.90
2018-02-13T23:39:15.539Z,99.90
2018-02-13T23:41:43.067Z,99.90
2018-02-13T23:44:11.366Z,99.90
2018-02-13T23:46:39.710Z,99.90
2018-02-13T23:49:07.244Z,99.90
2018-02-13T23:51:34.778Z,99.90
2018-02-13T23:54:02.451Z,99.90
2018-02-13T23:56:30.758Z,99.90
2018-02-13T23:58:59.063Z,99.90
